Decoded Metar for UWKS ( in _UNIDENTIFIED) (IATA:N/A) | Meteo·Mobile Aviation Weather
aviador You're here:

UWKS Decoded Metar

in _UNIDENTIFIED
Report Time2019-10-22 13:30:00
UTC Time2019-10-22 13:44:44
Flight Rules mvfr MVFR
Wind330° at 8 kt
W.Decomp.*RWY 24: 1.7 kt HW 7.8 kt RCW
Visibility9999 m
Phenomena:N/A
Clouds:Broken CB 020 Hf
Expected CloudBase > 1,600 ft AGL from Temp-Dew spread
Ceiling2,000 ft
Temp05°C (ISA -9)
Dew Point01°C (76% RH)
AAT0.3°C
QNH1020 hPa
Density Alt-659 ft
Elevation558 ft
Report Wrong Elevation
Raw Report
METAR UWKS 221330Z 33004MPS 9999 BKN020CB 05/01 Q1020 R24/010060
NOSIG RMK QFE751=

Extra information for UWKS:More info

Metar Taf Metar & Taf Last 4 Metars F.Rules Stats Wind Profile Meteogram Temp Stats Metar ALERT Operation Metar Decoded Social comments